This is the latest recevied weather packets stored in our database for station/object IK2RLN-10. If no packets are shown the sender has not sent any weather packets the latest 10 day(s).
| Time | Temp. | Humidity | Pressure | Rain* | Wind** | Luminosity | Snow |
|---|---|---|---|---|---|---|---|
| 1788412679 | 26.67° C | 41% | 1022 hPa | - | - | - | - |
| 1788412626 | 26.67° C | 41% | 1022 hPa | - | - | - | - |
| 1788411479 | 27.22° C | 41% | 1021.8 hPa | - | - | - | - |
| 1788411425 | 27.22° C | 41% | 1021.8 hPa | - | - | - | - |
| 1788410328 | 26.67° C | 42% | 1021.6 hPa | - | - | - | - |
| 1788410225 | 26.67° C | 42% | 1021.6 hPa | - | - | - | - |
| 1788409021 | 27.22° C | 42% | 1021.4 hPa | - | - | - | - |
| 1788407820 | 27.22° C | 42% | 1021.4 hPa | - | - | - | - |
| 1788406619 | 27.22° C | 42% | 1021.4 hPa | - | - | - | - |
| 1788405493 | 27.22° C | 42% | 1021.3 hPa | - | - | - | - |
| 1788405419 | 27.22° C | 42% | 1021.3 hPa | - | - | - | - |
| 1788404218 | 27.22° C | 43% | 1021.2 hPa | - | - | - | - |
| 1788403020 | 27.22° C | 43% | 1021.3 hPa | - | - | - | - |
| 1788401816 | 27.22° C | 43% | 1021.2 hPa | - | - | - | - |
| 1788379012 | 28.33° C | 42% | 1020.2 hPa | - | - | - | - |
| 1788377809 | 28.89° C | 42% | 1020 hPa | - | - | - | - |
| 1788376607 | 28.89° C | 42% | 1019.9 hPa | - | - | - | - |
| 1788374207 | 28.89° C | 42% | 1019.4 hPa | - | - | - | - |
| 1788370617 | 28.89° C | 43% | 1019 hPa | - | - | - | - |
| 1788369405 | 28.89° C | 42% | 1019 hPa | - | - | - | - |
| 1788368205 | 28.89° C | 42% | 1019 hPa | - | - | - | - |
| 1788365805 | 28.89° C | 43% | 1019 hPa | - | - | - | - |
| 1788359804 | 28.33° C | 43% | 1019.5 hPa | - | - | - | - |
| 1788358764 | 28.33° C | 43% | 1019.6 hPa | - | - | - | - |
| 1788358655 | 28.33° C | 43% | 1019.6 hPa | - | - | - | - |
* Rain since midnight (hover to see other rain measurements)
** Current wind speed in m/s (hover to see current wind gust speed)